sensor_id;sensor_type;location;lat;lon;timestamp;pressure;altitude;pressure_sealevel;temperature;humidity
43450;BME280;29041;42.266;23.110;2024-02-21T00:01:02;96451.31;;;5.46;100.00
43450;BME280;29041;42.266;23.110;2024-02-21T00:03:51;96464.53;;;5.67;100.00
43450;BME280;29041;42.266;23.110;2024-02-21T00:06:38;96446.16;;;5.70;100.00
43450;BME280;29041;42.266;23.110;2024-02-21T00:09:25;96444.81;;;5.68;100.00
43450;BME280;29041;42.266;23.110;2024-02-21T00:12:12;96443.38;;;5.96;100.00
43450;BME280;29041;42.266;23.110;2024-02-21T00:15:00;96444.63;;;6.14;100.00
43450;BME280;29041;42.266;23.110;2024-02-21T00:17:47;96445.94;;;5.51;100.00
43450;BME280;29041;42.266;23.110;2024-02-21T00:20:36;96437.19;;;5.46;100.00
43450;BME280;29041;42.266;23.110;2024-02-21T00:23:23;96432.31;;;5.68;100.00
43450;BME280;29041;42.266;23.110;2024-02-21T00:26:10;96446.47;;;5.53;100.00
43450;BME280;29041;42.266;23.110;2024-02-21T00:28:57;96442.41;;;5.77;100.00
43450;BME280;29041;42.266;23.110;2024-02-21T00:31:44;96435.91;;;5.98;100.00
43450;BME280;29041;42.266;23.110;2024-02-21T00:34:31;96450.44;;;6.22;100.00
43450;BME280;29041;42.266;23.110;2024-02-21T00:37:20;96462.13;;;5.76;100.00
43450;BME280;29041;42.266;23.110;2024-02-21T00:40:08;96450.25;;;6.08;100.00
43450;BME280;29041;42.266;23.110;2024-02-21T00:42:55;96443.06;;;6.08;100.00
43450;BME280;29041;42.266;23.110;2024-02-21T00:45:42;96449.09;;;5.69;100.00
43450;BME280;29041;42.266;23.110;2024-02-21T00:48:29;96451.59;;;5.39;100.00
43450;BME280;29041;42.266;23.110;2024-02-21T00:51:16;96454.56;;;5.28;100.00
43450;BME280;29041;42.266;23.110;2024-02-21T00:54:05;96443.63;;;5.34;100.00
43450;BME280;29041;42.266;23.110;2024-02-21T00:56:52;96447.00;;;5.55;100.00
43450;BME280;29041;42.266;23.110;2024-02-21T00:59:54;96448.72;;;5.91;100.00
43450;BME280;29041;42.266;23.110;2024-02-21T01:02:41;96441.31;;;5.78;100.00
43450;BME280;29041;42.266;23.110;2024-02-21T01:05:29;96436.47;;;5.90;100.00
43450;BME280;29041;42.266;23.110;2024-02-21T01:08:16;96446.03;;;6.07;100.00
43450;BME280;29041;42.266;23.110;2024-02-21T01:11:05;96429.50;;;6.05;100.00
43450;BME280;29041;42.266;23.110;2024-02-21T01:13:52;96441.81;;;5.90;100.00
43450;BME280;29041;42.266;23.110;2024-02-21T01:16:39;96422.56;;;5.43;100.00
43450;BME280;29041;42.266;23.110;2024-02-21T01:19:26;96441.50;;;5.26;100.00
43450;BME280;29041;42.266;23.110;2024-02-21T01:22:13;96414.13;;;5.20;100.00
43450;BME280;29041;42.266;23.110;2024-02-21T01:25:01;96433.47;;;5.42;100.00
43450;BME280;29041;42.266;23.110;2024-02-21T01:27:50;96416.22;;;5.29;100.00
43450;BME280;29041;42.266;23.110;2024-02-21T01:30:37;96422.56;;;5.43;100.00
43450;BME280;29041;42.266;23.110;2024-02-21T01:33:24;96417.41;;;5.67;100.00
43450;BME280;29041;42.266;23.110;2024-02-21T01:36:11;96420.91;;;5.52;100.00
43450;BME280;29041;42.266;23.110;2024-02-21T01:38:58;96378.19;;;5.13;100.00
43450;BME280;29041;42.266;23.110;2024-02-21T01:41:45;96413.22;;;5.46;100.00
43450;BME280;29041;42.266;23.110;2024-02-21T01:44:34;96413.81;;;5.27;100.00
43450;BME280;29041;42.266;23.110;2024-02-21T01:47:22;96408.78;;;5.26;100.00
43450;BME280;29041;42.266;23.110;2024-02-21T01:50:10;96409.84;;;5.24;100.00
43450;BME280;29041;42.266;23.110;2024-02-21T01:52:59;96406.66;;;5.28;100.00
43450;BME280;29041;42.266;23.110;2024-02-21T01:55:47;96399.72;;;5.21;100.00
43450;BME280;29041;42.266;23.110;2024-02-21T01:58:36;96401.59;;;5.21;100.00
43450;BME280;29041;42.266;23.110;2024-02-21T02:01:25;96401.00;;;5.39;100.00
43450;BME280;29041;42.266;23.110;2024-02-21T02:04:13;96396.69;;;5.49;100.00
43450;BME280;29041;42.266;23.110;2024-02-21T02:07:02;96394.34;;;5.42;100.00
43450;BME280;29041;42.266;23.110;2024-02-21T02:09:53;96382.97;;;5.21;100.00
43450;BME280;29041;42.266;23.110;2024-02-21T02:12:40;96389.56;;;5.34;100.00
43450;BME280;29041;42.266;23.110;2024-02-21T02:15:37;96399.66;;;5.37;100.00
43450;BME280;29041;42.266;23.110;2024-02-21T02:18:26;96397.59;;;5.29;100.00
43450;BME280;29041;42.266;23.110;2024-02-21T02:21:21;96394.69;;;5.15;100.00
43450;BME280;29041;42.266;23.110;2024-02-21T02:24:11;96393.59;;;5.26;100.00
43450;BME280;29041;42.266;23.110;2024-02-21T02:26:59;96398.16;;;5.10;100.00
43450;BME280;29041;42.266;23.110;2024-02-21T02:29:47;96409.09;;;4.98;100.00
43450;BME280;29041;42.266;23.110;2024-02-21T02:32:34;96404.06;;;4.97;100.00
43450;BME280;29041;42.266;23.110;2024-02-21T02:35:21;96384.88;;;5.05;100.00
43450;BME280;29041;42.266;23.110;2024-02-21T02:38:08;96388.09;;;4.91;100.00
43450;BME280;29041;42.266;23.110;2024-02-21T02:40:58;96371.66;;;4.69;100.00
43450;BME280;29041;42.266;23.110;2024-02-21T02:43:46;96383.88;;;4.65;100.00
43450;BME280;29041;42.266;23.110;2024-02-21T02:46:33;96386.81;;;4.63;100.00
43450;BME280;29041;42.266;23.110;2024-02-21T02:49:20;96383.88;;;4.70;100.00
43450;BME280;29041;42.266;23.110;2024-02-21T02:52:07;96364.75;;;4.47;100.00
43450;BME280;29041;42.266;23.110;2024-02-21T02:54:54;96382.31;;;4.58;100.00
43450;BME280;29041;42.266;23.110;2024-02-21T02:57:43;96382.31;;;4.58;100.00
43450;BME280;29041;42.266;23.110;2024-02-21T03:00:30;96384.16;;;4.58;100.00
43450;BME280;29041;42.266;23.110;2024-02-21T03:03:21;96386.03;;;4.68;100.00
43450;BME280;29041;42.266;23.110;2024-02-21T03:06:08;96384.16;;;4.63;100.00
43450;BME280;29041;42.266;23.110;2024-02-21T03:08:56;96387.59;;;4.79;100.00
43450;BME280;29041;42.266;23.110;2024-02-21T03:11:43;96387.63;;;4.69;100.00
43450;BME280;29041;42.266;23.110;2024-02-21T03:14:31;96403.03;;;4.72;100.00
43450;BME280;29041;42.266;23.110;2024-02-21T03:17:19;96405.66;;;4.87;100.00
43450;BME280;29041;42.266;23.110;2024-02-21T03:20:07;96399.00;;;4.90;100.00
43450;BME280;29041;42.266;23.110;2024-02-21T03:22:55;96404.59;;;4.93;100.00
43450;BME280;29041;42.266;23.110;2024-02-21T03:25:42;96409.16;;;4.72;100.00
43450;BME280;29041;42.266;23.110;2024-02-21T03:28:30;96405.94;;;4.75;100.00
43450;BME280;29041;42.266;23.110;2024-02-21T03:31:18;96399.81;;;4.85;100.00
43450;BME280;29041;42.266;23.110;2024-02-21T03:34:05;96388.38;;;4.95;100.00
43450;BME280;29041;42.266;23.110;2024-02-21T03:36:52;96396.88;;;4.92;100.00
43450;BME280;29041;42.266;23.110;2024-02-21T03:39:40;96389.22;;;4.65;100.00
43450;BME280;29041;42.266;23.110;2024-02-21T03:42:28;96399.56;;;4.82;100.00
43450;BME280;29041;42.266;23.110;2024-02-21T03:45:17;96412.88;;;4.61;100.00
43450;BME280;29041;42.266;23.110;2024-02-21T03:48:06;96395.88;;;4.57;100.00
43450;BME280;29041;42.266;23.110;2024-02-21T03:50:53;96406.50;;;4.72;100.00
43450;BME280;29041;42.266;23.110;2024-02-21T03:53:40;96403.78;;;4.88;100.00
43450;BME280;29041;42.266;23.110;2024-02-21T03:56:27;96412.59;;;4.83;100.00
43450;BME280;29041;42.266;23.110;2024-02-21T03:59:20;96412.63;;;4.68;100.00
43450;BME280;29041;42.266;23.110;2024-02-21T04:02:08;96422.16;;;4.89;100.00
43450;BME280;29041;42.266;23.110;2024-02-21T04:04:56;96415.25;;;4.83;100.00
43450;BME280;29041;42.266;23.110;2024-02-21T04:07:43;96412.31;;;4.85;100.00
43450;BME280;29041;42.266;23.110;2024-02-21T04:10:31;96407.31;;;4.68;100.00
43450;BME280;29041;42.266;23.110;2024-02-21T04:13:18;96404.63;;;4.68;100.00
43450;BME280;29041;42.266;23.110;2024-02-21T04:16:06;96409.94;;;4.78;100.00
43450;BME280;29041;42.266;23.110;2024-02-21T04:18:53;96404.56;;;5.04;100.00
43450;BME280;29041;42.266;23.110;2024-02-21T04:21:41;96406.91;;;5.21;100.00
43450;BME280;29041;42.266;23.110;2024-02-21T04:24:28;96409.63;;;5.05;100.00
43450;BME280;29041;42.266;23.110;2024-02-21T04:27:15;96412.22;;;5.26;100.00
43450;BME280;29041;42.266;23.110;2024-02-21T04:30:03;96400.72;;;5.41;100.00
43450;BME280;29041;42.266;23.110;2024-02-21T04:32:51;96410.38;;;5.21;100.00
43450;BME280;29041;42.266;23.110;2024-02-21T04:35:38;96419.50;;;4.84;100.00
43450;BME280;29041;42.266;23.110;2024-02-21T04:38:26;96412.59;;;4.63;100.00
43450;BME280;29041;42.266;23.110;2024-02-21T04:41:14;96418.72;;;4.94;100.00
43450;BME280;29041;42.266;23.110;2024-02-21T04:44:01;96408.06;;;4.94;100.00
43450;BME280;29041;42.266;23.110;2024-02-21T04:46:49;96420.03;;;4.86;100.00
43450;BME280;29041;42.266;23.110;2024-02-21T04:49:38;96430.94;;;4.74;100.00
43450;BME280;29041;42.266;23.110;2024-02-21T04:52:25;96419.53;;;4.69;100.00
43450;BME280;29041;42.266;23.110;2024-02-21T04:55:14;96421.13;;;4.65;100.00
43450;BME280;29041;42.266;23.110;2024-02-21T04:58:02;96418.19;;;4.66;100.00
43450;BME280;29041;42.266;23.110;2024-02-21T05:00:49;96416.63;;;4.65;100.00
43450;BME280;29041;42.266;23.110;2024-02-21T05:03:38;96417.66;;;4.69;100.00
43450;BME280;29041;42.266;23.110;2024-02-21T05:06:56;96416.88;;;4.64;100.00
43450;BME280;29041;42.266;23.110;2024-02-21T05:09:43;96405.72;;;4.51;100.00
43450;BME280;29041;42.266;23.110;2024-02-21T05:12:32;96423.78;;;4.44;100.00
43450;BME280;29041;42.266;23.110;2024-02-21T05:15:19;96427.75;;;4.52;100.00
43450;BME280;29041;42.266;23.110;2024-02-21T05:18:06;96416.34;;;4.56;100.00
43450;BME280;29041;42.266;23.110;2024-02-21T05:20:53;96429.38;;;4.48;100.00
43450;BME280;29041;42.266;23.110;2024-02-21T05:23:41;96425.91;;;4.47;100.00
43450;BME280;29041;42.266;23.110;2024-02-21T05:26:28;96400.41;;;4.46;100.00
43450;BME280;29041;42.266;23.110;2024-02-21T05:29:17;96417.91;;;4.78;100.00
43450;BME280;29041;42.266;23.110;2024-02-21T05:32:06;96423.22;;;4.88;100.00
43450;BME280;29041;42.266;23.110;2024-02-21T05:34:53;96434.41;;;4.85;100.00
43450;BME280;29041;42.266;23.110;2024-02-21T05:37:40;96426.16;;;4.92;100.00
43450;BME280;29041;42.266;23.110;2024-02-21T05:40:28;96431.75;;;4.80;100.00
43450;BME280;29041;42.266;23.110;2024-02-21T05:43:15;96413.41;;;4.63;100.00
43450;BME280;29041;42.266;23.110;2024-02-21T05:46:04;96429.09;;;4.70;100.00
43450;BME280;29041;42.266;23.110;2024-02-21T05:48:52;96428.56;;;4.57;100.00
43450;BME280;29041;42.266;23.110;2024-02-21T05:51:39;96440.28;;;4.62;100.00
43450;BME280;29041;42.266;23.110;2024-02-21T05:54:26;96419.81;;;4.41;100.00
43450;BME280;29041;42.266;23.110;2024-02-21T05:57:13;96448.25;;;4.67;100.00
43450;BME280;29041;42.266;23.110;2024-02-21T06:00:05;96446.13;;;4.58;100.00
43450;BME280;29041;42.266;23.110;2024-02-21T06:02:54;96461.56;;;4.67;100.00
43450;BME280;29041;42.266;23.110;2024-02-21T06:05:43;96451.72;;;4.57;100.00
43450;BME280;29041;42.266;23.110;2024-02-21T06:08:30;96456.72;;;5.10;100.00
43450;BME280;29041;42.266;23.110;2024-02-21T06:11:18;96451.44;;;4.89;100.00
43450;BME280;29041;42.266;23.110;2024-02-21T06:14:05;96467.13;;;5.01;100.00
43450;BME280;29041;42.266;23.110;2024-02-21T06:16:52;96472.16;;;4.92;100.00
43450;BME280;29041;42.266;23.110;2024-02-21T06:19:42;96479.34;;;5.07;100.00
43450;BME280;29041;42.266;23.110;2024-02-21T06:22:30;96482.28;;;4.96;100.00
43450;BME280;29041;42.266;23.110;2024-02-21T06:25:17;96491.88;;;4.81;100.00
43450;BME280;29041;42.266;23.110;2024-02-21T06:28:05;96489.75;;;4.73;100.00
43450;BME280;29041;42.266;23.110;2024-02-21T06:30:52;96489.75;;;4.68;100.00
43450;BME280;29041;42.266;23.110;2024-02-21T06:33:40;96477.50;;;4.72;100.00
43450;BME280;29041;42.266;23.110;2024-02-21T06:36:29;96489.19;;;5.02;100.00
43450;BME280;29041;42.266;23.110;2024-02-21T06:39:16;96490.00;;;4.82;100.00
43450;BME280;29041;42.266;23.110;2024-02-21T06:42:04;96499.84;;;4.86;100.00
43450;BME280;29041;42.266;23.110;2024-02-21T06:44:51;96502.50;;;4.91;100.00
43450;BME280;29041;42.266;23.110;2024-02-21T06:47:38;96496.66;;;5.00;100.00
43450;BME280;29041;42.266;23.110;2024-02-21T06:50:26;96503.03;;;5.04;100.00
43450;BME280;29041;42.266;23.110;2024-02-21T06:53:14;96496.91;;;5.03;100.00
43450;BME280;29041;42.266;23.110;2024-02-21T06:56:01;96503.03;;;5.19;100.00
43450;BME280;29041;42.266;23.110;2024-02-21T06:58:49;96513.66;;;5.30;100.00
43450;BME280;29041;42.266;23.110;2024-02-21T07:01:53;96507.91;;;5.88;100.00
43450;BME280;29041;42.266;23.110;2024-02-21T07:04:41;96510.84;;;5.81;100.00
43450;BME280;29041;42.266;23.110;2024-02-21T07:07:29;96502.81;;;5.92;100.00
43450;BME280;29041;42.266;23.110;2024-02-21T07:10:18;96506.31;;;5.87;100.00
43450;BME280;29041;42.266;23.110;2024-02-21T07:13:05;96495.88;;;5.91;100.00
43450;BME280;29041;42.266;23.110;2024-02-21T07:15:52;96492.91;;;6.13;100.00
43450;BME280;29041;42.266;23.110;2024-02-21T07:18:39;96504.22;;;6.39;100.00
43450;BME280;29041;42.266;23.110;2024-02-21T07:21:26;96505.28;;;6.38;100.00
43450;BME280;29041;42.266;23.110;2024-02-21T07:24:13;96507.38;;;6.41;100.00
43450;BME280;29041;42.266;23.110;2024-02-21T07:27:02;96504.59;;;6.62;100.00
43450;BME280;29041;42.266;23.110;2024-02-21T07:29:50;96483.00;;;6.93;100.00
43450;BME280;29041;42.266;23.110;2024-02-21T07:32:37;96498.88;;;7.08;100.00
43450;BME280;29041;42.266;23.110;2024-02-21T07:35:25;96511.63;;;7.17;100.00
43450;BME280;29041;42.266;23.110;2024-02-21T07:38:12;96510.66;;;7.61;100.00
43450;BME280;29041;42.266;23.110;2024-02-21T07:41:00;96516.63;;;6.94;100.00
43450;BME280;29041;42.266;23.110;2024-02-21T07:43:48;96506.19;;;6.97;100.00
43450;BME280;29041;42.266;23.110;2024-02-21T07:46:35;96514.03;;;7.18;100.00
43450;BME280;29041;42.266;23.110;2024-02-21T07:49:23;96497.91;;;6.99;100.00
43450;BME280;29041;42.266;23.110;2024-02-21T07:52:10;96500.13;;;6.92;100.00
43450;BME280;29041;42.266;23.110;2024-02-21T07:54:57;96496.72;;;6.81;100.00
43450;BME280;29041;42.266;23.110;2024-02-21T07:57:44;96508.13;;;6.87;100.00
43450;BME280;29041;42.266;23.110;2024-02-21T08:00:32;96501.72;;;6.88;100.00
43450;BME280;29041;42.266;23.110;2024-02-21T08:03:19;96510.44;;;6.98;100.00
43450;BME280;29041;42.266;23.110;2024-02-21T08:06:11;96512.38;;;7.22;100.00
43450;BME280;29041;42.266;23.110;2024-02-21T08:08:59;96509.41;;;7.53;98.87
43450;BME280;29041;42.266;23.110;2024-02-21T08:11:46;96508.50;;;7.09;100.00
43450;BME280;29041;42.266;23.110;2024-02-21T08:14:33;96501.41;;;6.94;100.00
43450;BME280;29041;42.266;23.110;2024-02-21T08:17:22;96504.91;;;7.24;100.00
43450;BME280;29041;42.266;23.110;2024-02-21T08:20:10;96513.56;;;7.65;95.56
43450;BME280;29041;42.266;23.110;2024-02-21T08:22:57;96508.22;;;7.89;95.53
43450;BME280;29041;42.266;23.110;2024-02-21T08:25:44;96510.94;;;7.84;92.58
43450;BME280;29041;42.266;23.110;2024-02-21T08:28:31;96510.91;;;7.89;94.17
43450;BME280;29041;42.266;23.110;2024-02-21T08:31:19;96501.06;;;7.84;91.12
43450;BME280;29041;42.266;23.110;2024-02-21T08:34:07;96499.50;;;8.02;88.86
43450;BME280;29041;42.266;23.110;2024-02-21T08:36:55;96517.41;;;8.02;88.81
43450;BME280;29041;42.266;23.110;2024-02-21T08:39:42;96512.06;;;8.02;89.27
43450;BME280;29041;42.266;23.110;2024-02-21T08:42:29;96507.91;;;8.15;88.34
43450;BME280;29041;42.266;23.110;2024-02-21T08:45:17;96519.88;;;7.98;89.76
43450;BME280;29041;42.266;23.110;2024-02-21T08:48:06;96522.69;;;7.88;90.18
43450;BME280;29041;42.266;23.110;2024-02-21T08:50:55;96524.03;;;8.09;90.26
43450;BME280;29041;42.266;23.110;2024-02-21T08:53:42;96473.47;;;8.08;88.41
43450;BME280;29041;42.266;23.110;2024-02-21T08:56:30;96512.34;;;8.00;90.25
43450;BME280;29041;42.266;23.110;2024-02-21T08:59:17;96499.09;;;8.14;89.38
43450;BME280;29041;42.266;23.110;2024-02-21T09:02:04;96510.06;;;8.32;89.20
43450;BME280;29041;42.266;23.110;2024-02-21T09:04:53;96504.03;;;9.16;84.02
43450;BME280;29041;42.266;23.110;2024-02-21T09:07:41;96514.63;;;9.21;82.84
43450;BME280;29041;42.266;23.110;2024-02-21T09:10:28;96501.41;;;9.72;80.14
43450;BME280;29041;42.266;23.110;2024-02-21T09:13:18;96501.34;;;9.16;80.88
43450;BME280;29041;42.266;23.110;2024-02-21T09:16:06;96496.00;;;10.14;76.58
43450;BME280;29041;42.266;23.110;2024-02-21T09:18:54;96502.81;;;10.85;72.87
43450;BME280;29041;42.266;23.110;2024-02-21T09:21:43;96492.78;;;10.76;72.48
43450;BME280;29041;42.266;23.110;2024-02-21T09:24:31;96489.13;;;11.18;71.36
43450;BME280;29041;42.266;23.110;2024-02-21T09:27:18;96485.41;;;11.36;66.96
43450;BME280;29041;42.266;23.110;2024-02-21T09:30:07;96486.19;;;10.60;72.04
43450;BME280;29041;42.266;23.110;2024-02-21T09:32:54;96483.81;;;10.81;71.05
43450;BME280;29041;42.266;23.110;2024-02-21T09:35:44;96489.84;;;11.09;69.54
43450;BME280;29041;42.266;23.110;2024-02-21T09:38:32;96492.78;;;10.99;67.03
43450;BME280;29041;42.266;23.110;2024-02-21T09:41:25;96487.94;;;12.13;62.89
43450;BME280;29041;42.266;23.110;2024-02-21T09:44:13;96490.91;;;12.03;64.51
43450;BME280;29041;42.266;23.110;2024-02-21T09:47:03;96480.97;;;11.72;64.29
43450;BME280;29041;42.266;23.110;2024-02-21T09:50:15;96488.63;;;11.87;62.34
43450;BME280;29041;42.266;23.110;2024-02-21T09:53:04;96472.25;;;11.66;64.91
43450;BME280;29041;42.266;23.110;2024-02-21T09:55:53;96479.56;;;12.24;59.68
43450;BME280;29041;42.266;23.110;2024-02-21T09:58:41;96468.78;;;11.66;62.33
43450;BME280;29041;42.266;23.110;2024-02-21T10:01:29;96453.31;;;11.40;62.46
43450;BME280;29041;42.266;23.110;2024-02-21T10:04:17;96453.31;;;11.80;61.07
43450;BME280;29041;42.266;23.110;2024-02-21T10:07:05;96458.09;;;11.43;62.08
43450;BME280;29041;42.266;23.110;2024-02-21T10:10:00;96450.91;;;12.54;58.68
43450;BME280;29041;42.266;23.110;2024-02-21T10:12:48;96448.81;;;12.77;57.57
43450;BME280;29041;42.266;23.110;2024-02-21T10:15:37;96423.63;;;12.64;56.36
43450;BME280;29041;42.266;23.110;2024-02-21T10:18:24;96435.22;;;12.65;57.62
43450;BME280;29041;42.266;23.110;2024-02-21T10:21:11;96423.63;;;12.64;57.69
43450;BME280;29041;42.266;23.110;2024-02-21T10:23:58;96433.56;;;11.94;60.42
43450;BME280;29041;42.266;23.110;2024-02-21T10:26:46;96421.03;;;13.03;55.23
43450;BME280;29041;42.266;23.110;2024-02-21T10:29:34;96429.78;;;12.82;56.03
43450;BME280;29041;42.266;23.110;2024-02-21T10:32:22;96422.53;;;12.21;58.28
43450;BME280;29041;42.266;23.110;2024-02-21T10:35:11;96423.31;;;12.75;55.59
43450;BME280;29041;42.266;23.110;2024-02-21T10:37:59;96424.56;;;12.07;57.59
43450;BME280;29041;42.266;23.110;2024-02-21T10:40:47;96413.84;;;12.51;56.56
43450;BME280;29041;42.266;23.110;2024-02-21T10:43:38;96407.34;;;12.43;57.04
43450;BME280;29041;42.266;23.110;2024-02-21T10:46:28;96410.47;;;12.72;55.19
43450;BME280;29041;42.266;23.110;2024-02-21T10:49:23;96394.63;;;13.95;52.56
43450;BME280;29041;42.266;23.110;2024-02-21T10:52:14;96391.31;;;14.53;49.90
43450;BME280;29041;42.266;23.110;2024-02-21T10:55:03;96394.47;;;14.55;49.93
43450;BME280;29041;42.266;23.110;2024-02-21T10:57:51;96381.25;;;13.47;51.04
43450;BME280;29041;42.266;23.110;2024-02-21T11:00:40;96387.91;;;14.01;50.11
43450;BME280;29041;42.266;23.110;2024-02-21T11:03:28;96384.56;;;12.97;52.73
43450;BME280;29041;42.266;23.110;2024-02-21T11:06:18;96381.84;;;12.05;55.83
43450;BME280;29041;42.266;23.110;2024-02-21T11:09:07;96382.03;;;11.42;59.83
43450;BME280;29041;42.266;23.110;2024-02-21T11:11:56;96373.47;;;11.32;60.69
43450;BME280;29041;42.266;23.110;2024-02-21T11:14:44;96378.03;;;11.40;59.45
43450;BME280;29041;42.266;23.110;2024-02-21T11:17:31;96365.59;;;11.53;59.07
43450;BME280;29041;42.266;23.110;2024-02-21T11:20:19;96356.81;;;12.22;56.50
43450;BME280;29041;42.266;23.110;2024-02-21T11:23:07;96350.66;;;12.13;55.59
43450;BME280;29041;42.266;23.110;2024-02-21T11:26:04;96351.09;;;11.89;56.75
43450;BME280;29041;42.266;23.110;2024-02-21T11:28:58;96355.53;;;11.85;57.76
43450;BME280;29041;42.266;23.110;2024-02-21T11:31:46;96322.94;;;13.85;51.99
43450;BME280;29041;42.266;23.110;2024-02-21T11:34:34;96326.78;;;14.18;50.79
43450;BME280;29041;42.266;23.110;2024-02-21T11:37:21;96325.81;;;13.59;51.58
43450;BME280;29041;42.266;23.110;2024-02-21T11:40:10;96324.78;;;14.48;49.09
43450;BME280;29041;42.266;23.110;2024-02-21T11:42:58;96333.78;;;13.98;48.72
43450;BME280;29041;42.266;23.110;2024-02-21T11:45:46;96329.47;;;12.85;52.21
43450;BME280;29041;42.266;23.110;2024-02-21T11:48:33;96329.22;;;12.69;51.66
43450;BME280;29041;42.266;23.110;2024-02-21T11:51:21;96330.72;;;11.97;53.88
43450;BME280;29041;42.266;23.110;2024-02-21T11:54:11;96326.69;;;11.59;55.10
43450;BME280;29041;42.266;23.110;2024-02-21T11:57:00;96324.09;;;11.19;56.14
43450;BME280;29041;42.266;23.110;2024-02-21T11:59:59;96326.34;;;10.94;56.38
43450;BME280;29041;42.266;23.110;2024-02-21T12:02:58;96316.53;;;11.38;55.83
43450;BME280;29041;42.266;23.110;2024-02-21T12:05:47;96315.09;;;11.32;58.12
43450;BME280;29041;42.266;23.110;2024-02-21T12:08:41;96315.19;;;11.01;59.65
43450;BME280;29041;42.266;23.110;2024-02-21T12:11:39;96314.78;;;10.53;59.43
43450;BME280;29041;42.266;23.110;2024-02-21T12:14:28;96311.38;;;11.02;59.75
43450;BME280;29041;42.266;23.110;2024-02-21T12:17:16;96305.44;;;11.22;59.83
43450;BME280;29041;42.266;23.110;2024-02-21T12:20:03;96288.22;;;11.23;58.24
43450;BME280;29041;42.266;23.110;2024-02-21T12:22:54;96289.00;;;11.24;58.71
43450;BME280;29041;42.266;23.110;2024-02-21T12:25:42;96298.38;;;10.86;59.95
43450;BME280;29041;42.266;23.110;2024-02-21T12:28:29;96288.25;;;11.58;57.82
43450;BME280;29041;42.266;23.110;2024-02-21T12:31:18;96295.03;;;10.89;56.91
43450;BME280;29041;42.266;23.110;2024-02-21T12:34:06;96290.56;;;11.16;58.71
43450;BME280;29041;42.266;23.110;2024-02-21T12:36:55;96288.06;;;11.29;57.03
43450;BME280;29041;42.266;23.110;2024-02-21T12:39:42;96286.06;;;12.04;55.54
43450;BME280;29041;42.266;23.110;2024-02-21T12:42:29;96278.34;;;11.10;55.05
43450;BME280;29041;42.266;23.110;2024-02-21T12:45:17;96279.50;;;11.18;56.86
43450;BME280;29041;42.266;23.110;2024-02-21T12:48:06;96276.66;;;11.23;56.97
43450;BME280;29041;42.266;23.110;2024-02-21T12:50:53;96279.28;;;11.98;56.46
43450;BME280;29041;42.266;23.110;2024-02-21T12:53:40;96276.13;;;10.94;55.63
43450;BME280;29041;42.266;23.110;2024-02-21T12:56:27;96281.44;;;10.77;56.45
43450;BME280;29041;42.266;23.110;2024-02-21T12:59:16;96264.47;;;11.25;55.31
43450;BME280;29041;42.266;23.110;2024-02-21T13:02:04;96263.91;;;11.46;54.93
43450;BME280;29041;42.266;23.110;2024-02-21T13:04:52;96253.31;;;11.50;54.32
43450;BME280;29041;42.266;23.110;2024-02-21T13:07:39;96261.06;;;11.51;52.46
43450;BME280;29041;42.266;23.110;2024-02-21T13:10:27;96250.13;;;11.39;53.80
43450;BME280;29041;42.266;23.110;2024-02-21T13:13:14;96239.69;;;11.37;54.20
43450;BME280;29041;42.266;23.110;2024-02-21T13:16:01;96252.34;;;11.28;55.09
43450;BME280;29041;42.266;23.110;2024-02-21T13:18:48;96255.84;;;11.46;54.79
43450;BME280;29041;42.266;23.110;2024-02-21T13:21:37;96252.97;;;11.95;52.75
43450;BME280;29041;42.266;23.110;2024-02-21T13:24:24;96252.19;;;11.77;53.67
43450;BME280;29041;42.266;23.110;2024-02-21T13:27:11;96256.78;;;12.12;52.47
43450;BME280;29041;42.266;23.110;2024-02-21T13:29:58;96226.13;;;10.76;58.94
43450;BME280;29041;42.266;23.110;2024-02-21T13:32:46;96253.13;;;11.29;55.64
43450;BME280;29041;42.266;23.110;2024-02-21T13:35:33;96251.03;;;11.17;54.97
43450;BME280;29041;42.266;23.110;2024-02-21T13:38:23;96249.00;;;11.22;55.70
43450;BME280;29041;42.266;23.110;2024-02-21T13:41:10;96240.13;;;10.55;58.09
43450;BME280;29041;42.266;23.110;2024-02-21T13:43:57;96243.97;;;10.40;57.19
43450;BME280;29041;42.266;23.110;2024-02-21T13:46:46;96248.03;;;10.60;57.86
43450;BME280;29041;42.266;23.110;2024-02-21T13:49:33;96240.28;;;11.08;55.32
43450;BME280;29041;42.266;23.110;2024-02-21T13:52:21;96242.50;;;11.15;55.51
43450;BME280;29041;42.266;23.110;2024-02-21T13:55:10;96228.63;;;10.63;57.34
43450;BME280;29041;42.266;23.110;2024-02-21T13:57:57;96215.44;;;10.93;56.77
43450;BME280;29041;42.266;23.110;2024-02-21T14:00:44;96228.06;;;10.84;58.47
43450;BME280;29041;42.266;23.110;2024-02-21T14:03:31;96238.22;;;11.05;58.25
43450;BME280;29041;42.266;23.110;2024-02-21T14:06:18;96238.69;;;11.16;58.13
43450;BME280;29041;42.266;23.110;2024-02-21T14:09:05;96239.50;;;10.36;60.61
43450;BME280;29041;42.266;23.110;2024-02-21T14:11:55;96234.78;;;10.64;60.26
43450;BME280;29041;42.266;23.110;2024-02-21T14:14:43;96226.22;;;10.30;61.82
43450;BME280;29041;42.266;23.110;2024-02-21T14:17:30;96236.16;;;10.53;62.83
43450;BME280;29041;42.266;23.110;2024-02-21T14:20:17;96229.00;;;10.88;61.06
43450;BME280;29041;42.266;23.110;2024-02-21T14:23:04;96233.75;;;11.00;61.07
43450;BME280;29041;42.266;23.110;2024-02-21T14:25:51;96234.13;;;10.36;63.00
43450;BME280;29041;42.266;23.110;2024-02-21T14:28:40;96240.88;;;10.56;63.39
43450;BME280;29041;42.266;23.110;2024-02-21T14:31:28;96237.69;;;10.22;64.20
43450;BME280;29041;42.266;23.110;2024-02-21T14:34:16;96230.53;;;10.09;64.29
43450;BME280;29041;42.266;23.110;2024-02-21T14:37:03;96231.00;;;10.34;64.07
43450;BME280;29041;42.266;23.110;2024-02-21T14:39:51;96223.56;;;10.08;65.52